CZ-0080 weather

Sázava
Central Bohemian Region, Czechia

Public forecast

Using degrees Celsius for public forecast. Weather courtesy of forecast.io.

METAR (pilot weather report)

Closest report is Čáslav Air Base, 17.4 nm (32.2 km) E. Retrieved 2019/01/17 16:00 UTC (51 minutes ago):

LKCV 171600Z 21010KT 9999 SCT041 BKN060 07/02 Q1003 NOSIG

TAF (pilot weather forecast)

Closest forecast is Čáslav Air Base, 17.4 nm (32.2 km) E. Retrieved 2019/01/17 12:04 UTC (5 hours ago):

TAF LKCV 171100Z 1712/1812 23014KT 9999 BKN035 TEMPO 1712/1806 23017G27KT TEMPO 1712/1718 8000 SHRA BKN020 PROB40 TEMPO 1718/1806 24018G32KT 4000 SHRASN BKN012 OVC035